createdAt,value
2022-11-20T00:01:21.413Z,96205.81
2022-11-20T00:03:48.153Z,96203.34
2022-11-20T00:06:17.256Z,96204.94
2022-11-20T00:08:44.116Z,96208.44
2022-11-20T00:11:16.166Z,96208.38
2022-11-20T00:13:44.047Z,96205.00
2022-11-20T00:16:12.732Z,96205.81
2022-11-20T00:18:39.239Z,96205.75
2022-11-20T00:21:13.524Z,96203.09
2022-11-20T00:23:39.965Z,96207.25
2022-11-20T00:26:08.961Z,96204.88
2022-11-20T00:28:35.606Z,96205.72
2022-11-20T00:31:22.212Z,96206.59
2022-11-20T00:33:49.027Z,96204.88
2022-11-20T00:36:23.651Z,96198.81
2022-11-20T00:38:54.623Z,96201.44
2022-11-20T00:41:21.811Z,96213.97
2022-11-20T00:43:48.275Z,96209.75
2022-11-20T00:46:19.911Z,96208.03
2022-11-20T00:48:46.828Z,96204.75
2022-11-20T00:51:18.935Z,96205.47
2022-11-20T00:53:45.785Z,96205.59
2022-11-20T00:56:14.494Z,96203.75
2022-11-20T00:58:42.989Z,96201.34
2022-11-20T01:01:15.186Z,96195.44
2022-11-20T01:03:52.110Z,96202.03
2022-11-20T01:06:24.241Z,96217.91
2022-11-20T01:08:53.303Z,96206.22
2022-11-20T01:11:27.938Z,96215.47
2022-11-20T01:13:55.624Z,96212.94
2022-11-20T01:16:25.923Z,96213.75
2022-11-20T01:18:54.536Z,96214.59
2022-11-20T01:21:23.540Z,96222.03
2022-11-20T01:23:51.051Z,96217.84
2022-11-20T01:26:20.445Z,96220.38
2022-11-20T01:28:47.199Z,96213.63
2022-11-20T01:31:17.044Z,96217.84
2022-11-20T01:33:44.328Z,96223.75
2022-11-20T01:36:11.374Z,96227.13
2022-11-20T01:38:37.818Z,96228.75
2022-11-20T01:41:04.544Z,96224.69
2022-11-20T01:43:31.111Z,96222.25
2022-11-20T01:46:04.888Z,96218.13
2022-11-20T01:48:36.907Z,96222.50
2022-11-20T01:51:07.200Z,96228.41
2022-11-20T01:53:37.510Z,96214.94
2022-11-20T01:56:09.195Z,96225.69
2022-11-20T01:58:39.852Z,96219.72
2022-11-20T02:01:06.335Z,96215.34
2022-11-20T02:03:32.984Z,96212.06
2022-11-20T02:06:18.126Z,96218.94
2022-11-20T02:08:44.549Z,96213.94
2022-11-20T02:11:10.999Z,96212.44
2022-11-20T02:13:46.241Z,96210.78
2022-11-20T02:16:16.525Z,96201.53
2022-11-20T02:18:44.418Z,96204.94
2022-11-20T02:21:19.885Z,96206.78
2022-11-20T02:24:00.926Z,96204.34
2022-11-20T02:26:30.604Z,96209.31
2022-11-20T02:28:58.750Z,96208.34
2022-11-20T02:31:25.089Z,96207.97
2022-11-20T02:33:58.895Z,96210.56
2022-11-20T02:36:28.275Z,96203.09
2022-11-20T02:38:55.122Z,96200.53
2022-11-20T02:41:21.456Z,96206.19
2022-11-20T02:43:47.909Z,96210.34
2022-11-20T02:46:14.739Z,96198.81
2022-11-20T02:48:41.070Z,96208.63
2022-11-20T02:51:07.520Z,96208.63
2022-11-20T02:53:34.020Z,96200.72
2022-11-20T02:56:00.390Z,96203.94
2022-11-20T02:58:26.729Z,96197.13
2022-11-20T03:00:53.269Z,96197.41
2022-11-20T03:03:19.699Z,96201.63
2022-11-20T03:05:46.051Z,96198.84
2022-11-20T03:08:12.552Z,96197.47
2022-11-20T03:10:38.884Z,96199.16
2022-11-20T03:13:05.201Z,96188.25
2022-11-20T03:15:31.631Z,96186.66
2022-11-20T03:17:58.033Z,96187.56
2022-11-20T03:20:24.896Z,96185.03
2022-11-20T03:22:51.639Z,96185.94
2022-11-20T03:25:17.966Z,96184.28
2022-11-20T03:27:44.291Z,96185.94
2022-11-20T03:30:10.931Z,96187.59
2022-11-20T03:32:37.285Z,96186.91
2022-11-20T03:35:03.754Z,96185.81
2022-11-20T03:37:30.127Z,96193.63
2022-11-20T03:39:56.450Z,96192.16
2022-11-20T03:42:41.564Z,96191.19
2022-11-20T03:45:08.393Z,96187.00
2022-11-20T03:47:34.771Z,96191.28
2022-11-20T03:50:01.097Z,96191.28
2022-11-20T03:52:27.428Z,96198.69
2022-11-20T03:54:53.823Z,96186.25
2022-11-20T03:57:20.246Z,96194.56
2022-11-20T03:59:46.648Z,96191.50
2022-11-20T04:02:13.079Z,96193.50
2022-11-20T04:04:39.463Z,96196.94
2022-11-20T04:07:05.898Z,96184.09
2022-11-20T04:09:32.267Z,96191.78
2022-11-20T04:11:58.634Z,96194.94
2022-11-20T04:14:25.002Z,96184.00
2022-11-20T04:16:51.383Z,96189.19
2022-11-20T04:19:18.047Z,96189.19
2022-11-20T04:21:45.432Z,96188.53
2022-11-20T04:24:11.853Z,96188.38
2022-11-20T04:26:38.518Z,96184.09
2022-11-20T04:29:05.040Z,96188.84
2022-11-20T04:31:34.798Z,96182.38
2022-11-20T04:34:04.478Z,96174.81
2022-11-20T04:36:31.657Z,96174.16
2022-11-20T04:39:03.499Z,96170.03
2022-11-20T04:41:32.806Z,96171.09
2022-11-20T04:44:03.350Z,96175.75
2022-11-20T04:46:31.998Z,96167.41
2022-11-20T04:48:59.619Z,96173.19
2022-11-20T04:51:26.310Z,96177.22
2022-11-20T04:53:52.744Z,96179.09
2022-11-20T04:56:19.444Z,96179.13
2022-11-20T04:58:45.944Z,96168.31
2022-11-20T05:01:18.951Z,96167.53
2022-11-20T05:03:46.155Z,96162.63
2022-11-20T05:06:14.865Z,96166.72
2022-11-20T05:08:41.957Z,96169.00
2022-11-20T05:11:17.164Z,96167.19
2022-11-20T05:13:43.525Z,96160.28
2022-11-20T05:16:13.425Z,96163.00
2022-11-20T05:18:40.325Z,96166.47
2022-11-20T05:21:07.910Z,96166.06
2022-11-20T05:23:34.880Z,96164.59
2022-11-20T05:26:02.197Z,96170.66
2022-11-20T05:28:30.465Z,96169.06
2022-11-20T05:30:56.926Z,96166.34
2022-11-20T05:33:23.335Z,96166.22
2022-11-20T05:35:50.739Z,96165.34
2022-11-20T05:38:17.192Z,96170.06
2022-11-20T05:40:43.685Z,96165.47
2022-11-20T05:43:10.050Z,96162.81
2022-11-20T05:45:36.479Z,96167.84
2022-11-20T05:48:02.927Z,96168.59
2022-11-20T05:50:29.546Z,96165.47
2022-11-20T05:52:58.465Z,96168.88
2022-11-20T05:55:24.817Z,96169.88
2022-11-20T05:57:51.142Z,96167.50
2022-11-20T06:00:17.763Z,96163.41
2022-11-20T06:02:44.215Z,96172.56
2022-11-20T06:05:10.682Z,96157.91
2022-11-20T06:07:38.176Z,96165.72
2022-11-20T06:10:04.846Z,96158.22
2022-11-20T06:12:33.705Z,96163.34
2022-11-20T06:15:00.791Z,96162.47
2022-11-20T06:17:27.279Z,96166.31
2022-11-20T06:19:53.616Z,96164.66
2022-11-20T06:22:19.978Z,96164.00
2022-11-20T06:24:46.326Z,96166.41
2022-11-20T06:27:12.682Z,96169.03
2022-11-20T06:29:39.020Z,96164.06
2022-11-20T06:32:05.392Z,96164.00
2022-11-20T06:34:31.743Z,96163.63
2022-11-20T06:36:58.074Z,96161.81
2022-11-20T06:39:24.668Z,96161.28
2022-11-20T06:41:55.755Z,96158.63
2022-11-20T06:44:24.801Z,96164.53
2022-11-20T06:46:51.094Z,96160.56
2022-11-20T06:49:17.438Z,96167.41
2022-11-20T06:51:43.774Z,96162.28
2022-11-20T06:54:10.094Z,96171.56
2022-11-20T06:56:36.426Z,96178.47
2022-11-20T06:59:06.230Z,96175.22
2022-11-20T07:01:32.644Z,96176.06
2022-11-20T07:03:58.983Z,96175.44
2022-11-20T07:06:25.345Z,96173.06
2022-11-20T07:08:53.459Z,96174.00
2022-11-20T07:11:19.938Z,96176.44
2022-11-20T07:13:46.339Z,96172.22
2022-11-20T07:16:12.709Z,96179.00
2022-11-20T07:18:39.203Z,96176.44
2022-11-20T07:21:08.457Z,96179.84
2022-11-20T07:23:35.308Z,96179.91
2022-11-20T07:26:06.801Z,96174.06
2022-11-20T07:28:33.919Z,96174.94
2022-11-20T07:31:00.695Z,96171.91
2022-11-20T07:33:27.208Z,96172.09
2022-11-20T07:35:53.775Z,96178.13
2022-11-20T07:38:20.117Z,96173.97
2022-11-20T07:40:46.556Z,96175.94
2022-11-20T07:43:12.991Z,96174.44
2022-11-20T07:45:39.390Z,96176.44
2022-11-20T07:48:05.925Z,96174.94
2022-11-20T07:50:32.334Z,96175.09
2022-11-20T07:53:04.523Z,96177.22
2022-11-20T07:55:31.397Z,96180.53
2022-11-20T07:57:58.239Z,96184.75
2022-11-20T08:00:25.119Z,96188.19
2022-11-20T08:02:52.690Z,96187.59
2022-11-20T08:05:19.333Z,96180.13
2022-11-20T08:07:45.831Z,96195.63
2022-11-20T08:10:14.577Z,96178.16
2022-11-20T08:13:12.199Z,96169.88
2022-11-20T08:15:40.074Z,96170.84
2022-11-20T08:18:30.016Z,96177.69
2022-11-20T08:20:57.328Z,96174.19
2022-11-20T08:23:23.980Z,96178.44
2022-11-20T08:25:51.842Z,96181.56
2022-11-20T08:28:21.432Z,96186.72
2022-11-20T08:30:49.640Z,96182.00
2022-11-20T08:33:18.190Z,96183.94
2022-11-20T08:35:44.767Z,96190.69
2022-11-20T08:38:11.142Z,96182.38
2022-11-20T08:40:37.518Z,96192.38
2022-11-20T08:43:04.001Z,96182.50
2022-11-20T08:45:34.048Z,96184.28
2022-11-20T08:48:03.098Z,96188.78
2022-11-20T08:50:32.492Z,96187.97
2022-11-20T08:53:06.430Z,96187.31
2022-11-20T08:55:33.048Z,96190.09
2022-11-20T08:57:59.400Z,96190.09
2022-11-20T09:00:25.778Z,96184.22
2022-11-20T09:02:53.125Z,96185.94
2022-11-20T09:05:19.589Z,96180.16
2022-11-20T09:07:45.914Z,96186.44
2022-11-20T09:10:27.860Z,96183.50
2022-11-20T09:12:55.963Z,96163.63
2022-11-20T09:15:23.298Z,96172.38
2022-11-20T09:17:56.866Z,96171.81
2022-11-20T09:20:23.592Z,96175.94
2022-11-20T09:22:49.956Z,96169.69
2022-11-20T09:25:16.820Z,96170.34
2022-11-20T09:27:44.964Z,96165.66
2022-11-20T09:30:11.873Z,96174.03
2022-11-20T09:32:40.122Z,96175.09
2022-11-20T09:35:07.989Z,96176.00
2022-11-20T09:37:34.494Z,96174.03
2022-11-20T09:40:00.886Z,96168.00
2022-11-20T09:42:52.621Z,96167.13
2022-11-20T09:45:49.995Z,96166.69
2022-11-20T09:48:25.514Z,96164.44
2022-11-20T09:51:17.833Z,96170.84
2022-11-20T09:53:44.183Z,96164.72
2022-11-20T09:56:12.081Z,96169.66
2022-11-20T09:58:48.312Z,96166.16
2022-11-20T10:01:20.504Z,96175.50
2022-11-20T10:03:54.326Z,96172.75
2022-11-20T10:06:30.011Z,96176.16
2022-11-20T10:09:07.247Z,96171.84
2022-11-20T10:11:47.170Z,96172.88
2022-11-20T10:14:28.858Z,96171.84
2022-11-20T10:17:12.288Z,96161.81
2022-11-20T10:19:52.053Z,96153.56
2022-11-20T10:22:41.514Z,96159.53
2022-11-20T10:25:15.835Z,96168.94
2022-11-20T10:28:23.253Z,96163.06
2022-11-20T10:30:58.265Z,96153.97
2022-11-20T10:33:38.730Z,96157.47
2022-11-20T10:36:27.249Z,96150.84
2022-11-20T10:39:01.625Z,96161.88
2022-11-20T10:41:35.874Z,96151.72
2022-11-20T10:44:15.978Z,96154.97
2022-11-20T10:46:46.204Z,96151.50
2022-11-20T10:49:16.597Z,96158.34
2022-11-20T10:52:04.551Z,96144.19
2022-11-20T10:54:50.909Z,96145.94
2022-11-20T10:57:45.275Z,96138.31
2022-11-20T11:00:13.322Z,96141.00
2022-11-20T11:02:49.162Z,96149.69
2022-11-20T11:05:21.239Z,96147.94
2022-11-20T11:07:51.757Z,96140.28
2022-11-20T11:10:24.197Z,96144.38
2022-11-20T11:12:51.718Z,96143.44
2022-11-20T11:15:30.195Z,96143.50
2022-11-20T11:17:56.972Z,96141.72
2022-11-20T11:20:25.657Z,96140.81
2022-11-20T11:22:59.916Z,96139.97
2022-11-20T11:25:26.252Z,96132.44
2022-11-20T11:27:53.512Z,96129.81
2022-11-20T11:30:21.208Z,96134.03
2022-11-20T11:32:47.958Z,96134.03
2022-11-20T11:35:26.620Z,96129.81
2022-11-20T11:37:56.277Z,96128.16
2022-11-20T11:40:24.971Z,96121.50
2022-11-20T11:43:01.950Z,96113.97
2022-11-20T11:45:28.674Z,96119.94
2022-11-20T11:47:59.114Z,96123.34
2022-11-20T11:50:27.095Z,96120.03
2022-11-20T11:53:11.857Z,96119.97
2022-11-20T11:56:06.640Z,96117.53
2022-11-20T11:58:46.398Z,96115.06
2022-11-20T12:01:35.436Z,96110.78
2022-11-20T12:04:20.385Z,96115.91
2022-11-20T12:06:52.617Z,96112.59
2022-11-20T12:09:21.227Z,96104.13
2022-11-20T12:12:09.664Z,96111.84
2022-11-20T12:14:39.722Z,96107.75
2022-11-20T12:17:06.056Z,96099.28
2022-11-20T12:19:35.569Z,96095.09
2022-11-20T12:22:23.695Z,96097.75
2022-11-20T12:25:11.738Z,96098.59
2022-11-20T12:27:55.706Z,96099.44
2022-11-20T12:30:23.957Z,96091.00
2022-11-20T12:33:31.360Z,96091.81
2022-11-20T12:36:28.674Z,96095.28
2022-11-20T12:39:04.736Z,96091.81
2022-11-20T12:42:08.685Z,96087.66
2022-11-20T12:45:08.895Z,96085.13
2022-11-20T12:47:37.971Z,96092.75
2022-11-20T12:50:10.317Z,96088.50
2022-11-20T12:52:46.357Z,96087.66
2022-11-20T12:55:12.696Z,96081.75
2022-11-20T12:57:52.998Z,96081.66
2022-11-20T13:00:21.413Z,96090.25
2022-11-20T13:02:56.593Z,96092.16
2022-11-20T13:05:33.258Z,96087.25
2022-11-20T13:08:02.968Z,96081.31
2022-11-20T13:10:52.499Z,96086.31
2022-11-20T13:13:36.381Z,96083.66
2022-11-20T13:16:25.935Z,96078.50
2022-11-20T13:18:52.480Z,96075.16
2022-11-20T13:21:22.443Z,96066.69
2022-11-20T13:23:49.238Z,96068.47
2022-11-20T13:26:24.581Z,96068.50
2022-11-20T13:29:16.921Z,96069.25
2022-11-20T13:31:48.879Z,96070.91
2022-11-20T13:34:27.642Z,96076.88
2022-11-20T13:36:56.818Z,96063.31
2022-11-20T13:39:36.922Z,96078.47
2022-11-20T13:42:27.486Z,96078.47
2022-11-20T13:45:09.210Z,96075.03
2022-11-20T13:47:36.649Z,96067.34
2022-11-20T13:50:05.177Z,96074.97
2022-11-20T13:52:31.582Z,96067.28
2022-11-20T13:55:07.075Z,96069.72
2022-11-20T13:58:02.461Z,96078.19
2022-11-20T14:00:29.084Z,96079.84
2022-11-20T14:03:07.738Z,96083.97
2022-11-20T14:05:41.545Z,96085.66
2022-11-20T14:08:20.615Z,96084.78
2022-11-20T14:10:47.055Z,96080.53
2022-11-20T14:13:21.134Z,96086.47
2022-11-20T14:15:47.700Z,96089.78
2022-11-20T14:18:19.973Z,96088.03
2022-11-20T14:20:47.307Z,96094.72
2022-11-20T14:23:13.677Z,96088.69
2022-11-20T14:25:44.057Z,96093.72
2022-11-20T14:28:25.533Z,96086.94
2022-11-20T14:30:53.078Z,96087.78
2022-11-20T14:33:20.824Z,96080.97
2022-11-20T14:35:50.584Z,96080.25
2022-11-20T14:38:19.485Z,96072.56
2022-11-20T14:40:46.229Z,96086.16
2022-11-20T14:43:27.581Z,96086.97
2022-11-20T14:45:59.604Z,96080.13
2022-11-20T14:48:37.993Z,96075.84
2022-11-20T14:51:04.363Z,96067.41
2022-11-20T14:53:30.705Z,96063.19
2022-11-20T14:56:00.418Z,96067.56
2022-11-20T14:58:30.143Z,96060.72
2022-11-20T15:01:04.415Z,96054.03
2022-11-20T15:03:34.751Z,96049.03
2022-11-20T15:06:01.647Z,96050.69
2022-11-20T15:08:28.406Z,96055.00
2022-11-20T15:10:55.926Z,96062.56
2022-11-20T15:13:35.237Z,96049.72
2022-11-20T15:16:03.719Z,96059.06
2022-11-20T15:18:30.159Z,96063.31
2022-11-20T15:20:58.621Z,96062.44
2022-11-20T15:23:26.700Z,96069.16
2022-11-20T15:25:53.063Z,96068.56
2022-11-20T15:28:44.852Z,96070.09
2022-11-20T15:31:16.663Z,96062.41
2022-11-20T15:33:43.467Z,96069.88
2022-11-20T15:36:10.671Z,96066.41
2022-11-20T15:38:37.573Z,96097.47
2022-11-20T15:41:04.056Z,96111.69
2022-11-20T15:43:30.494Z,96091.19
2022-11-20T15:46:00.932Z,96087.78
2022-11-20T15:48:30.827Z,96085.16
2022-11-20T15:51:23.403Z,96089.13
2022-11-20T15:53:49.767Z,96090.03
2022-11-20T15:56:16.219Z,96082.31
2022-11-20T15:58:42.623Z,96081.38
2022-11-20T16:01:14.280Z,96083.06
2022-11-20T16:03:40.996Z,96081.25
2022-11-20T16:06:07.331Z,96090.47
2022-11-20T16:08:33.726Z,96097.13
2022-11-20T16:11:00.202Z,96100.47
2022-11-20T16:13:45.483Z,96085.34
2022-11-20T16:16:33.312Z,96090.22
2022-11-20T16:19:00.908Z,96092.72
2022-11-20T16:21:33.646Z,96097.81
2022-11-20T16:24:04.703Z,96094.44
2022-11-20T16:26:31.905Z,96105.50
2022-11-20T16:29:00.331Z,96088.53
2022-11-20T16:31:27.337Z,96094.50
2022-11-20T16:33:55.052Z,96091.97
2022-11-20T16:36:23.044Z,96086.84
2022-11-20T16:38:54.387Z,96089.47
2022-11-20T16:41:20.613Z,96083.59
2022-11-20T16:43:57.902Z,96087.69
2022-11-20T16:46:27.128Z,96086.75
2022-11-20T16:48:58.709Z,96073.97
2022-11-20T16:51:26.184Z,96075.88
2022-11-20T16:53:53.459Z,96076.41
2022-11-20T16:56:21.586Z,96070.38
2022-11-20T16:58:50.071Z,96078.03
2022-11-20T17:01:21.729Z,96072.78
2022-11-20T17:03:55.243Z,96079.28
2022-11-20T17:06:24.923Z,96083.38
2022-11-20T17:08:51.873Z,96084.00
2022-11-20T17:11:19.640Z,96088.94
2022-11-20T17:13:47.308Z,96079.66
2022-11-20T17:16:21.731Z,96079.66
2022-11-20T17:18:50.057Z,96082.28
2022-11-20T17:21:18.482Z,96083.19
2022-11-20T17:23:46.406Z,96073.94
2022-11-20T17:26:16.403Z,96068.81
2022-11-20T17:28:43.422Z,96075.59
2022-11-20T17:31:13.908Z,96073.88
2022-11-20T17:33:42.474Z,96064.34
2022-11-20T17:36:10.723Z,96071.13
2022-11-20T17:38:37.127Z,96057.56
2022-11-20T17:41:05.306Z,96054.84
2022-11-20T17:43:35.700Z,96068.22
2022-11-20T17:46:24.418Z,96075.91
2022-11-20T17:48:50.759Z,96071.56
2022-11-20T17:51:22.442Z,96068.09
2022-11-20T17:53:51.383Z,96070.56
2022-11-20T17:56:36.709Z,96070.72
2022-11-20T17:59:08.329Z,96059.63
2022-11-20T18:01:35.147Z,96056.16
2022-11-20T18:04:02.474Z,96061.94
2022-11-20T18:06:30.417Z,96054.19
2022-11-20T18:09:00.653Z,96067.91
2022-11-20T18:11:29.479Z,96058.59
2022-11-20T18:14:17.414Z,96053.50
2022-11-20T18:16:49.030Z,96049.38
2022-11-20T18:19:19.282Z,96051.16
2022-11-20T18:21:45.794Z,96041.66
2022-11-20T18:24:13.734Z,96031.63
2022-11-20T18:26:44.272Z,96028.09
2022-11-20T18:29:12.930Z,96032.28
2022-11-20T18:31:40.103Z,96027.09
2022-11-20T18:34:11.338Z,96027.94
2022-11-20T18:36:37.772Z,96033.09
2022-11-20T18:39:04.718Z,96026.31
2022-11-20T18:41:50.503Z,96022.22
2022-11-20T18:44:42.131Z,96018.88
2022-11-20T18:47:14.698Z,96013.91
2022-11-20T18:49:42.900Z,96010.75
2022-11-20T18:52:09.342Z,96000.72
2022-11-20T18:54:36.970Z,96002.66
2022-11-20T18:57:04.688Z,95987.47
2022-11-20T18:59:31.702Z,95990.00
2022-11-20T19:01:58.440Z,95989.19
2022-11-20T19:04:25.264Z,95990.00
2022-11-20T19:06:55.941Z,95990.72
2022-11-20T19:09:24.169Z,96004.94
2022-11-20T19:11:51.214Z,96003.94
2022-11-20T19:14:17.882Z,96010.09
2022-11-20T19:16:44.320Z,96000.84
2022-11-20T19:19:10.880Z,96004.09
2022-11-20T19:21:38.326Z,96003.19
2022-11-20T19:24:06.117Z,95997.97
2022-11-20T19:26:35.606Z,95998.91
2022-11-20T19:29:02.810Z,95993.00
2022-11-20T19:31:29.231Z,95991.09
2022-11-20T19:33:58.298Z,95987.59
2022-11-20T19:36:28.793Z,95985.00
2022-11-20T19:38:55.525Z,95987.53
2022-11-20T19:41:33.650Z,95979.97
2022-11-20T19:44:05.367Z,95984.94
2022-11-20T19:46:36.933Z,95977.22
2022-11-20T19:49:05.437Z,95986.63
2022-11-20T19:51:34.632Z,95982.47
2022-11-20T19:54:02.249Z,95983.38
2022-11-20T19:56:32.798Z,95980.06
2022-11-20T19:59:00.285Z,95976.75
2022-11-20T20:01:31.691Z,95975.06
2022-11-20T20:04:04.965Z,95971.69
2022-11-20T20:06:33.116Z,95961.00
2022-11-20T20:09:11.881Z,95956.75
2022-11-20T20:11:39.593Z,95961.78
2022-11-20T20:14:08.570Z,95952.56
2022-11-20T20:16:36.085Z,95952.50
2022-11-20T20:19:04.527Z,95943.03
2022-11-20T20:21:33.166Z,95945.66
2022-11-20T20:24:00.015Z,95939.72
2022-11-20T20:26:28.534Z,95931.41
2022-11-20T20:28:55.596Z,95934.78
2022-11-20T20:31:25.546Z,95933.13
2022-11-20T20:33:51.981Z,95931.38
2022-11-20T20:36:20.005Z,95926.38
2022-11-20T20:38:47.081Z,95923.03
2022-11-20T20:41:19.556Z,95930.59
2022-11-20T20:44:05.139Z,95921.34
2022-11-20T20:46:32.636Z,95914.47
2022-11-20T20:48:59.096Z,95917.81
2022-11-20T20:51:25.552Z,95910.06
2022-11-20T20:53:51.941Z,95920.13
2022-11-20T20:56:19.355Z,95913.50
2022-11-20T20:58:45.925Z,95909.97
2022-11-20T21:01:16.938Z,95914.13
2022-11-20T21:03:43.601Z,95912.50
2022-11-20T21:06:11.112Z,95903.16
2022-11-20T21:08:40.745Z,95894.72
2022-11-20T21:11:11.131Z,95894.72
2022-11-20T21:13:39.745Z,95893.09
2022-11-20T21:16:06.933Z,95904.09
2022-11-20T21:18:33.546Z,95899.81
2022-11-20T21:21:23.112Z,95894.72
2022-11-20T21:23:49.715Z,95894.75
2022-11-20T21:26:17.274Z,95899.03
2022-11-20T21:28:45.913Z,95893.22
2022-11-20T21:31:15.204Z,95894.88
2022-11-20T21:33:43.758Z,95894.84
2022-11-20T21:36:14.026Z,95881.47
2022-11-20T21:38:40.826Z,95862.81
2022-11-20T21:41:09.977Z,95880.84
2022-11-20T21:43:37.073Z,95876.72
2022-11-20T21:46:07.110Z,95876.03
2022-11-20T21:48:35.283Z,95878.72
2022-11-20T21:51:07.093Z,95878.00
2022-11-20T21:53:35.159Z,95883.16
2022-11-20T21:56:04.100Z,95879.69
2022-11-20T21:58:30.844Z,95890.00
2022-11-20T22:00:57.833Z,95891.78
2022-11-20T22:03:24.631Z,95891.91
2022-11-20T22:05:58.610Z,95891.81
2022-11-20T22:08:25.999Z,95888.63
2022-11-20T22:11:00.578Z,95891.16
2022-11-20T22:13:46.521Z,95895.47
2022-11-20T22:16:13.843Z,95897.19
2022-11-20T22:18:44.961Z,95893.03
2022-11-20T22:21:13.854Z,95882.84
2022-11-20T22:23:40.676Z,95881.31
2022-11-20T22:26:08.309Z,95883.13
2022-11-20T22:28:35.559Z,95871.22
2022-11-20T22:31:04.404Z,95875.44
2022-11-20T22:33:32.269Z,95867.88
2022-11-20T22:36:15.593Z,95864.47
2022-11-20T22:38:42.730Z,95861.03
2022-11-20T22:41:27.150Z,95860.97
2022-11-20T22:43:59.449Z,95863.59
2022-11-20T22:46:28.216Z,95858.47
2022-11-20T22:49:00.026Z,95866.03
2022-11-20T22:51:31.354Z,95862.66
2022-11-20T22:53:57.684Z,95866.94
2022-11-20T22:56:24.189Z,95855.84
2022-11-20T22:58:52.235Z,95850.75
2022-11-20T23:01:25.700Z,95849.88
2022-11-20T23:03:56.032Z,95847.34
2022-11-20T23:06:23.434Z,95842.22
2022-11-20T23:08:50.346Z,95847.31
2022-11-20T23:11:19.659Z,95847.31
2022-11-20T23:13:46.586Z,95843.88
2022-11-20T23:16:16.101Z,95833.75
2022-11-20T23:18:43.572Z,95842.97
2022-11-20T23:21:13.277Z,95825.25
2022-11-20T23:23:40.223Z,95825.16
2022-11-20T23:26:10.118Z,95828.53
2022-11-20T23:28:38.175Z,95829.44
2022-11-20T23:31:05.109Z,95827.78
2022-11-20T23:33:34.720Z,95826.06
2022-11-20T23:36:01.126Z,95817.63
2022-11-20T23:38:27.602Z,95813.41
2022-11-20T23:40:54.009Z,95814.22
2022-11-20T23:43:21.813Z,95806.63
2022-11-20T23:45:59.366Z,95801.69
2022-11-20T23:48:31.129Z,95810.97
2022-11-20T23:50:58.370Z,95811.00
2022-11-20T23:53:25.461Z,95805.13
2022-11-20T23:55:54.175Z,95794.09
2022-11-20T23:58:21.870Z,95794.09
